MST,Max TemperatureF,Mean TemperatureF,Min TemperatureF,Max Dew PointF,MeanDew PointF,Min DewpointF,Max Humidity, Mean Humidity, Min Humidity, Max Sea Level PressureIn, Mean Sea Level PressureIn, Min Sea Level PressureIn, Max VisibilityMiles, Mean VisibilityMiles, Min VisibilityMiles, Max Wind SpeedMPH, Mean Wind SpeedMPH, Max Gust SpeedMPH,PrecipitationIn, CloudCover, Events, WindDirDegrees
2013-2-1,40,31,21,30,26,21,100,80,59,30.43,30.35,30.29,10,10,5,10,3,12,0.00,0,,4
2013-2-2,44,33,22,31,26,21,100,73,45,30.56,30.47,30.40,10,10,7,13,4,14,0.00,0,,112
2013-2-3,36,32,27,29,27,23,100,85,70,30.38,30.26,30.18,10,10,10,9,2,10,0.00,2,,10
2013-2-4,41,32,22,31,26,21,100,80,59,30.27,30.21,30.12,10,10,6,12,3,14,0.00,0,,38
2013-2-5,45,35,24,30,26,21,92,71,49,30.25,30.13,29.98,10,10,10,14,6,16,0.00,0,,86
2013-2-6,45,36,26,34,28,24,100,77,53,30.14,30.02,29.95,10,10,8,15,4,17,0.00,3,,334
2013-2-7,48,37,25,31,26,23,100,71,42,30.26,30.14,30.05,10,10,9,15,4,18,0.00,0,,104
2013-2-8,55,42,29,32,25,18,89,59,28,30.01,29.76,29.58,10,10,10,35,14,54,0.00,5,,126
2013-2-9,39,34,29,31,28,23,100,77,54,29.77,29.66,29.59,10,10,5,17,6,21,T,6,Snow,320
2013-2-10,37,29,21,27,26,21,100,76,52,29.94,29.84,29.77,10,5,0,13,4,15,0.08,7,Fog-Snow,112
2013-2-11,30,25,19,28,24,17,100,85,69,30.21,30.00,29.89,10,5,0,13,5,15,0.13,7,Fog-Snow,308
2013-2-12,33,23,13,19,14,10,92,65,38,30.37,30.31,30.23,10,10,10,8,2,10,0.00,1,,356
2013-2-13,38,29,20,25,20,16,92,68,44,30.37,30.29,30.23,10,10,10,13,3,14,0.00,2,,16
2013-2-14,44,34,23,28,24,20,92,69,45,30.32,30.27,30.22,10,10,9,10,3,12,0.00,3,,8
2013-2-15,45,33,21,24,20,17,92,65,37,30.48,30.43,30.32,10,10,10,12,4,12,0.00,0,,84
2013-2-16,46,34,21,23,19,16,88,60,31,30.52,30.37,30.17,10,10,10,14,4,15,0.00,0,,110
2013-2-17,48,36,23,25,20,16,81,56,31,30.13,29.90,29.71,10,10,10,22,7,25,0.00,1,,325
2013-2-18,40,30,20,19,13,7,81,54,27,30.17,30.11,29.94,10,10,10,13,5,16,0.00,0,,338
2013-2-19,49,35,20,17,11,3,67,41,15,30.10,29.87,29.64,10,10,10,25,9,30,0.00,0,,111
2013-2-20,48,39,29,28,19,12,75,51,26,29.60,29.56,29.49,10,10,10,17,9,21,0.00,5,,125
2013-2-21,43,37,31,30,25,21,89,67,45,29.88,29.75,29.57,10,10,9,16,5,20,T,8,Snow,11
2013-2-22,35,29,22,28,25,17,100,78,56,30.15,29.99,29.89,10,6,0,25,7,29,0.02,7,Fog-Snow,300
2013-2-23,42,31,20,29,22,12,100,67,34,30.10,29.87,29.72,10,5,0,29,14,32,0.10,7,Fog-Snow,293
2013-2-24,33,26,18,25,21,16,96,77,58,30.18,29.96,29.83,10,7,1,15,6,20,0.01,7,Snow,321
2013-2-25,40,29,17,22,17,11,84,58,32,30.29,30.14,29.97,10,10,10,16,4,17,0.00,1,,101
2013-2-26,38,31,24,27,22,15,100,72,44,30.27,30.01,29.89,10,7,1,21,8,25,0.05,7,Snow,327
2013-2-27,38,28,17,19,15,10,84,58,32,30.44,30.37,30.21,10,10,10,15,5,17,0.00,0,,115
2013-2-28,42,30,17,19,13,9,84,57,29,30.54,30.46,30.37,10,10,10,13,5,14,0.00,1,,111